createdAt,value
2023-04-06T00:00:53.025Z,12.13
2023-04-06T00:03:24.126Z,12.00
2023-04-06T00:05:53.448Z,12.63
2023-04-06T00:08:25.543Z,12.77
2023-04-06T00:10:59.192Z,12.85
2023-04-06T00:13:30.913Z,12.73
2023-04-06T00:16:01.725Z,13.00
2023-04-06T00:18:32.698Z,13.17
2023-04-06T00:21:03.530Z,14.07
2023-04-06T00:23:32.170Z,13.23
2023-04-06T00:26:06.085Z,13.63
2023-04-06T00:28:39.793Z,13.27
2023-04-06T00:31:11.101Z,13.63
2023-04-06T00:33:40.235Z,13.10
2023-04-06T00:36:11.064Z,13.27
2023-04-06T00:38:42.427Z,13.15
2023-04-06T00:41:11.453Z,14.77
2023-04-06T00:43:41.430Z,14.43
2023-04-06T00:46:13.612Z,14.35
2023-04-06T00:48:46.729Z,13.75
2023-04-06T00:51:20.123Z,13.13
2023-04-06T00:53:49.045Z,12.95
2023-04-06T00:56:17.760Z,13.68
2023-04-06T00:58:52.032Z,13.38
2023-04-06T01:01:27.206Z,13.68
2023-04-06T01:03:56.682Z,13.90
2023-04-06T01:06:30.745Z,14.75
2023-04-06T01:09:00.325Z,14.35
2023-04-06T01:11:30.280Z,13.85
2023-04-06T01:14:01.936Z,14.82
2023-04-06T01:16:34.343Z,13.90
2023-04-06T01:19:06.944Z,14.77
2023-04-06T01:21:36.708Z,14.15
2023-04-06T01:28:46.741Z,14.23
2023-04-06T01:31:18.519Z,15.17
2023-04-06T01:33:49.066Z,14.80
2023-04-06T01:36:17.724Z,14.60
2023-04-06T01:38:49.612Z,15.30
2023-04-06T01:41:22.117Z,15.85
2023-04-06T01:43:57.232Z,14.63
2023-04-06T01:46:30.386Z,15.20
2023-04-06T01:49:00.478Z,15.30
2023-04-06T01:51:30.573Z,15.55
2023-04-06T01:54:03.193Z,15.68
2023-04-06T01:56:31.968Z,14.52
2023-04-06T01:59:02.345Z,15.05
2023-04-06T02:01:36.006Z,14.95
2023-04-06T02:04:07.104Z,14.73
2023-04-06T02:06:36.111Z,14.73
2023-04-06T02:09:05.211Z,14.70
2023-04-06T02:11:33.639Z,14.75
2023-04-06T02:14:04.435Z,15.68
2023-04-06T02:16:33.587Z,15.05
2023-04-06T02:19:03.512Z,15.15
2023-04-06T02:21:32.432Z,16.30
2023-04-06T02:24:01.758Z,15.35
2023-04-06T02:26:39.664Z,15.30
2023-04-06T02:29:11.698Z,14.77
2023-04-06T02:31:41.992Z,14.80
2023-04-06T02:34:14.897Z,15.23
2023-04-06T02:36:45.744Z,15.15
2023-04-06T02:39:15.583Z,14.90
2023-04-06T02:41:46.483Z,14.80
2023-04-06T02:44:18.302Z,14.30
2023-04-06T02:46:50.094Z,14.40
2023-04-06T02:49:20.867Z,14.55
2023-04-06T02:51:54.759Z,14.90
2023-04-06T02:54:27.573Z,14.40
2023-04-06T02:56:56.404Z,14.45
2023-04-06T02:59:28.535Z,15.15
2023-04-06T03:01:58.617Z,14.50
2023-04-06T03:04:34.105Z,15.23
2023-04-06T03:07:05.317Z,15.07
2023-04-06T03:09:34.706Z,15.95
2023-04-06T03:12:04.584Z,15.88
2023-04-06T03:14:40.997Z,15.32
2023-04-06T03:17:12.721Z,15.40
2023-04-06T03:22:12.846Z,13.48
2023-04-06T03:24:42.520Z,14.95
2023-04-06T03:27:13.028Z,14.23
2023-04-06T03:29:50.501Z,15.23
2023-04-06T03:32:19.276Z,14.70
2023-04-06T03:34:49.766Z,15.50
2023-04-06T03:37:18.751Z,16.15
2023-04-06T03:39:50.007Z,15.85
2023-04-06T03:42:20.195Z,15.02
2023-04-06T03:45:05.759Z,15.55
2023-04-06T03:47:34.356Z,14.73
2023-04-06T03:50:03.919Z,15.93
2023-04-06T03:52:36.945Z,15.57
2023-04-06T03:55:06.933Z,15.95
2023-04-06T03:57:38.622Z,15.85
2023-04-06T04:00:12.246Z,16.58
2023-04-06T04:02:47.507Z,16.50
2023-04-06T04:05:16.427Z,15.43
2023-04-06T04:07:48.073Z,15.80
2023-04-06T04:10:20.449Z,16.15
2023-04-06T04:12:52.165Z,16.27
2023-04-06T04:15:24.350Z,16.33
2023-04-06T04:22:23.149Z,15.40
2023-04-06T04:24:52.300Z,15.70
2023-04-06T04:27:21.680Z,16.58
2023-04-06T04:29:53.237Z,17.40
2023-04-06T04:32:28.266Z,16.77
2023-04-06T04:35:01.948Z,16.42
2023-04-06T04:37:33.181Z,15.88
2023-04-06T04:40:04.519Z,16.33
2023-04-06T04:42:40.497Z,16.10
2023-04-06T04:45:14.197Z,15.38
2023-04-06T04:47:44.743Z,16.30
2023-04-06T04:50:13.813Z,16.00
2023-04-06T04:52:44.434Z,16.92
2023-04-06T04:55:13.555Z,17.08
2023-04-06T04:57:42.056Z,17.42
2023-04-06T05:00:12.267Z,18.13
2023-04-06T05:02:41.607Z,17.33
2023-04-06T05:05:12.961Z,18.30
2023-04-06T05:07:45.403Z,18.85
2023-04-06T05:10:16.055Z,17.95
2023-04-06T05:12:47.626Z,17.92
2023-04-06T05:16:56.769Z,18.38
2023-04-06T05:27:49.240Z,17.65
2023-04-06T05:30:25.657Z,20.70
2023-04-06T05:40:24.180Z,22.77
2023-04-06T05:45:54.317Z,19.55
2023-04-06T05:48:23.187Z,18.80
2023-04-06T05:50:52.915Z,18.63
2023-04-06T05:53:23.130Z,19.15
2023-04-06T05:55:52.261Z,17.67
2023-04-06T05:58:24.578Z,16.80
2023-04-06T06:01:02.397Z,17.00
2023-04-06T06:03:32.765Z,17.20
2023-04-06T06:06:05.593Z,17.90
2023-04-06T06:08:39.742Z,17.23
2023-04-06T06:11:09.539Z,17.30
2023-04-06T06:13:43.243Z,16.15
2023-04-06T06:16:12.017Z,17.48
2023-04-06T06:18:47.339Z,17.10
2023-04-06T06:24:20.558Z,14.45
2023-04-06T06:26:50.903Z,17.02
2023-04-06T06:29:21.844Z,16.52
2023-04-06T06:31:50.711Z,16.27
2023-04-06T06:34:23.843Z,16.83
2023-04-06T06:36:53.465Z,16.15
2023-04-06T06:39:23.847Z,16.27
2023-04-06T06:41:52.548Z,16.45
2023-04-06T06:44:22.746Z,16.23
2023-04-06T06:46:51.790Z,16.48
2023-04-06T06:49:21.383Z,15.63
2023-04-06T06:51:50.824Z,14.68
2023-04-06T06:54:19.372Z,15.23
2023-04-06T06:56:47.827Z,15.00
2023-04-06T06:59:20.181Z,16.23
2023-04-06T07:01:50.864Z,15.30
2023-04-06T07:04:24.366Z,14.98
2023-04-06T07:06:53.674Z,15.48
2023-04-06T07:09:22.052Z,14.95
2023-04-06T07:11:51.081Z,13.77
2023-04-06T07:14:22.435Z,15.52
2023-04-06T07:16:52.776Z,14.70
2023-04-06T07:19:21.615Z,15.40
2023-04-06T07:21:50.669Z,14.82
2023-04-06T07:24:24.163Z,14.73
2023-04-06T07:26:56.965Z,14.18
2023-04-06T07:29:28.426Z,15.10
2023-04-06T07:31:58.443Z,14.15
2023-04-06T07:34:30.147Z,14.38
2023-04-06T07:36:58.922Z,13.70
2023-04-06T07:39:32.995Z,12.50
2023-04-06T07:42:02.419Z,12.77
2023-04-06T07:44:32.093Z,11.70
2023-04-06T07:47:02.264Z,12.00
2023-04-06T07:49:31.386Z,12.20
2023-04-06T07:52:00.649Z,12.13
2023-04-06T07:54:29.359Z,11.13
2023-04-06T07:57:00.155Z,10.32
2023-04-06T07:59:31.301Z,10.65
2023-04-06T08:02:04.307Z,9.63
2023-04-06T08:04:32.928Z,9.43
2023-04-06T08:07:01.473Z,9.65
2023-04-06T08:09:30.211Z,11.20
2023-04-06T08:11:58.778Z,9.55
2023-04-06T08:14:27.872Z,10.65
2023-04-06T08:16:56.859Z,8.52
2023-04-06T08:19:27.388Z,9.75
2023-04-06T08:21:59.076Z,10.38
2023-04-06T08:24:27.840Z,9.70
2023-04-06T08:26:57.125Z,8.95
2023-04-06T08:29:26.866Z,9.23
2023-04-06T08:31:56.826Z,9.80
2023-04-06T08:34:26.521Z,9.50
2023-04-06T08:36:58.251Z,9.20
2023-04-06T08:39:28.812Z,9.25
2023-04-06T08:42:03.699Z,8.80
2023-04-06T08:44:33.742Z,8.40
2023-04-06T08:47:04.065Z,8.80
2023-04-06T08:49:35.316Z,8.40
2023-04-06T08:52:04.230Z,8.87
2023-04-06T08:54:32.656Z,7.78
2023-04-06T08:57:02.760Z,8.45
2023-04-06T08:59:32.426Z,7.85
2023-04-06T09:02:03.819Z,8.40
2023-04-06T09:04:37.759Z,8.60
2023-04-06T09:07:07.312Z,8.35
2023-04-06T09:09:36.518Z,8.93
2023-04-06T09:12:07.128Z,9.20
2023-04-06T09:14:37.943Z,10.13
2023-04-06T09:17:07.773Z,9.05
2023-04-06T09:19:48.992Z,8.95
2023-04-06T09:22:18.424Z,8.70
2023-04-06T09:24:48.288Z,9.55
2023-04-06T09:27:17.399Z,9.45
2023-04-06T09:29:47.004Z,9.10
2023-04-06T09:32:18.841Z,8.32
2023-04-06T09:34:50.950Z,8.75
2023-04-06T09:39:49.620Z,8.93
2023-04-06T09:42:27.075Z,9.30
2023-04-06T09:44:59.029Z,9.30
2023-04-06T09:47:29.696Z,9.85
2023-04-06T09:50:43.011Z,8.20
2023-04-06T09:53:17.946Z,9.00
2023-04-06T09:55:52.612Z,8.03
2023-04-06T09:58:27.520Z,8.50
2023-04-06T10:01:01.462Z,8.07
2023-04-06T10:03:42.202Z,8.35
2023-04-06T10:06:14.262Z,8.85
2023-04-06T10:08:48.821Z,8.80
2023-04-06T10:11:18.439Z,8.50
2023-04-06T10:13:51.264Z,9.10
2023-04-06T10:16:21.223Z,9.05
2023-04-06T10:19:01.756Z,9.05
2023-04-06T10:21:34.308Z,8.18
2023-04-06T10:24:11.282Z,7.50
2023-04-06T10:26:40.233Z,8.00
2023-04-06T10:29:12.766Z,7.70
2023-04-06T10:31:45.976Z,8.18
2023-04-06T10:34:16.009Z,7.63
2023-04-06T10:36:44.902Z,6.40
2023-04-06T10:39:28.076Z,9.30
2023-04-06T10:42:08.403Z,8.93
2023-04-06T10:44:45.945Z,7.75
2023-04-06T10:47:23.108Z,7.97
2023-04-06T10:49:52.989Z,8.13
2023-04-06T10:52:28.313Z,8.05
2023-04-06T10:55:00.699Z,7.97
2023-04-06T10:57:33.822Z,7.80
2023-04-06T11:00:03.987Z,7.65
2023-04-06T11:02:33.486Z,7.60
2023-04-06T11:05:02.381Z,7.20
2023-04-06T11:07:32.605Z,7.70
2023-04-06T11:12:47.214Z,7.30
2023-04-06T11:15:17.284Z,7.47
2023-04-06T11:17:55.350Z,7.80
2023-04-06T11:20:24.407Z,7.70
2023-04-06T11:22:57.127Z,7.40
2023-04-06T11:25:28.774Z,7.50
2023-04-06T11:27:57.152Z,7.43
2023-04-06T11:30:26.145Z,7.40
2023-04-06T11:33:02.750Z,7.38
2023-04-06T11:35:35.200Z,6.95
2023-04-06T11:38:06.081Z,7.00
2023-04-06T11:40:39.303Z,7.50
2023-04-06T11:43:13.045Z,7.30
2023-04-06T11:45:45.332Z,7.35
2023-04-06T11:48:23.766Z,6.97
2023-04-06T11:50:58.991Z,7.30
2023-04-06T11:53:28.131Z,6.68
2023-04-06T11:56:01.349Z,7.10
2023-04-06T11:58:31.954Z,7.18
2023-04-06T12:01:06.684Z,6.75
2023-04-06T12:03:35.988Z,7.82
2023-04-06T12:06:07.393Z,6.93
2023-04-06T12:08:36.292Z,6.70
2023-04-06T12:11:06.806Z,6.03
2023-04-06T12:13:35.596Z,6.35
2023-04-06T12:16:05.525Z,7.10
2023-04-06T12:18:34.402Z,6.90
2023-04-06T12:21:07.384Z,6.63
2023-04-06T12:23:36.568Z,7.43
2023-04-06T12:26:12.997Z,7.32
2023-04-06T12:28:45.776Z,7.40
2023-04-06T12:31:18.057Z,7.30
2023-04-06T12:33:49.386Z,7.10
2023-04-06T12:36:23.025Z,7.20
2023-04-06T12:38:52.359Z,7.30
2023-04-06T12:41:23.852Z,8.00
2023-04-06T12:43:52.820Z,7.50
2023-04-06T12:46:26.633Z,7.57
2023-04-06T12:48:57.795Z,7.45
2023-04-06T12:51:26.594Z,7.70
2023-04-06T12:53:58.021Z,7.60
2023-04-06T12:56:27.850Z,7.20
2023-04-06T12:58:57.432Z,8.07
2023-04-06T13:01:30.036Z,7.80
2023-04-06T13:04:00.825Z,8.00
2023-04-06T13:06:31.447Z,7.70
2023-04-06T13:09:00.300Z,8.10
2023-04-06T13:11:33.689Z,7.13
2023-04-06T13:14:02.588Z,8.27
2023-04-06T13:16:31.649Z,7.45
2023-04-06T13:19:01.788Z,7.72
2023-04-06T13:21:31.547Z,7.55
2023-04-06T13:24:03.962Z,7.38
2023-04-06T13:26:34.683Z,7.60
2023-04-06T13:29:03.580Z,7.43
2023-04-06T13:31:33.184Z,7.28
2023-04-06T13:34:02.810Z,7.38
2023-04-06T13:36:33.635Z,7.32
2023-04-06T13:39:02.391Z,7.00
2023-04-06T13:41:37.099Z,7.50
2023-04-06T13:44:11.472Z,7.50
2023-04-06T13:46:41.248Z,7.30
2023-04-06T13:49:09.892Z,7.70
2023-04-06T13:51:38.794Z,7.43
2023-04-06T13:54:07.721Z,7.63
2023-04-06T13:56:37.401Z,7.47
2023-04-06T13:59:05.926Z,7.72
2023-04-06T14:01:36.842Z,7.57
2023-04-06T14:04:06.027Z,7.80
2023-04-06T14:06:34.398Z,6.72
2023-04-06T14:09:06.260Z,7.65
2023-04-06T14:11:35.250Z,7.53
2023-04-06T14:14:06.032Z,7.35
2023-04-06T14:16:34.937Z,7.45
2023-04-06T14:19:03.736Z,7.72
2023-04-06T14:21:33.116Z,7.40
2023-04-06T14:24:01.516Z,7.68
2023-04-06T14:26:31.794Z,7.47
2023-04-06T14:29:01.311Z,7.75
2023-04-06T14:31:32.896Z,7.80
2023-04-06T14:34:03.841Z,7.88
2023-04-06T14:36:37.512Z,7.60
2023-04-06T14:39:06.963Z,7.35
2023-04-06T14:41:38.631Z,7.40
2023-04-06T14:46:43.601Z,7.28
2023-04-06T14:49:15.698Z,7.63
2023-04-06T14:51:45.446Z,7.50
2023-04-06T14:54:14.160Z,7.32
2023-04-06T14:56:44.083Z,7.80
2023-04-06T14:59:12.788Z,6.53
2023-04-06T15:01:43.199Z,7.70
2023-04-06T15:04:12.859Z,7.40
2023-04-06T15:06:46.177Z,7.40
2023-04-06T15:09:18.788Z,7.40
2023-04-06T15:11:49.989Z,7.45
2023-04-06T15:14:18.549Z,6.47
2023-04-06T15:16:48.610Z,7.28
2023-04-06T15:19:18.761Z,6.90
2023-04-06T15:21:55.609Z,6.57
2023-04-06T15:24:25.804Z,6.90
2023-04-06T15:26:54.618Z,6.25
2023-04-06T15:29:23.246Z,6.95
2023-04-06T15:31:53.781Z,6.90
2023-04-06T15:34:24.354Z,7.30
2023-04-06T15:36:54.115Z,7.72
2023-04-06T15:39:24.789Z,6.70
2023-04-06T15:41:57.187Z,7.45
2023-04-06T15:44:27.329Z,7.30
2023-04-06T15:47:00.227Z,7.70
2023-04-06T15:49:29.024Z,8.48
2023-04-06T15:51:58.421Z,7.43
2023-04-06T15:54:26.638Z,8.05
2023-04-06T15:56:56.890Z,7.93
2023-04-06T15:59:25.633Z,7.60
2023-04-06T16:01:54.862Z,8.57
2023-04-06T16:04:24.668Z,8.07
2023-04-06T16:06:54.674Z,8.65
2023-04-06T16:09:23.627Z,7.53
2023-04-06T16:11:51.906Z,7.60
2023-04-06T16:14:20.415Z,7.93
2023-04-06T16:16:50.217Z,8.20
2023-04-06T16:19:20.524Z,8.50
2023-04-06T16:21:52.044Z,8.32
2023-04-06T16:24:21.381Z,8.63
2023-04-06T16:26:52.399Z,8.50
2023-04-06T16:29:22.374Z,8.50
2023-04-06T16:31:53.600Z,9.32
2023-04-06T16:34:22.355Z,8.88
2023-04-06T16:36:53.606Z,8.35
2023-04-06T16:39:22.857Z,8.30
2023-04-06T16:41:51.541Z,8.80
2023-04-06T16:44:20.069Z,24.38
2023-04-06T16:46:50.084Z,12.15
2023-04-06T16:49:22.171Z,14.55
2023-04-06T16:51:53.548Z,11.30
2023-04-06T16:54:21.820Z,9.60
2023-04-06T16:56:52.584Z,9.07
2023-04-06T16:59:22.476Z,9.35
2023-04-06T17:01:54.763Z,9.43
2023-04-06T17:04:23.751Z,9.43
2023-04-06T17:06:54.645Z,10.50
2023-04-06T17:09:25.393Z,9.32
2023-04-06T17:11:53.988Z,10.55
2023-04-06T17:14:25.784Z,10.68
2023-04-06T17:16:55.277Z,10.88
2023-04-06T17:19:25.299Z,12.68
2023-04-06T17:21:55.367Z,12.25
2023-04-06T17:24:23.881Z,12.20
2023-04-06T17:26:57.773Z,15.07
2023-04-06T17:29:26.269Z,14.23
2023-04-06T17:31:57.486Z,13.40
2023-04-06T17:34:26.758Z,13.98
2023-04-06T17:36:57.176Z,13.77
2023-04-06T17:39:28.074Z,15.10
2023-04-06T17:41:56.381Z,15.02
2023-04-06T17:44:25.102Z,28.55
2023-04-06T17:47:02.271Z,14.38
2023-04-06T17:49:30.939Z,15.65
2023-04-06T17:52:01.297Z,20.70
2023-04-06T17:54:30.197Z,17.30
2023-04-06T17:57:07.560Z,15.98
2023-04-06T17:59:37.789Z,16.35
2023-04-06T18:02:07.022Z,14.10
2023-04-06T18:04:35.932Z,16.65
2023-04-06T18:07:08.411Z,16.63
2023-04-06T18:09:37.371Z,17.27
2023-04-06T18:12:09.163Z,16.75
2023-04-06T18:14:41.430Z,17.73
2023-04-06T18:17:13.817Z,17.50
2023-04-06T18:19:42.472Z,17.25
2023-04-06T18:22:16.366Z,18.80
2023-04-06T18:24:48.377Z,18.35
2023-04-06T18:27:23.136Z,18.45
2023-04-06T18:29:53.155Z,17.52
2023-04-06T18:32:21.772Z,18.13
2023-04-06T18:34:50.236Z,18.90
2023-04-06T18:37:20.493Z,20.10
2023-04-06T18:42:21.003Z,18.98
2023-04-06T18:44:52.714Z,19.40
2023-04-06T18:47:34.135Z,21.27
2023-04-06T18:50:03.172Z,23.60
2023-04-06T18:52:37.370Z,22.88
2023-04-06T18:55:07.085Z,22.88
2023-04-06T18:57:37.605Z,23.17
2023-04-06T19:00:07.268Z,24.80
2023-04-06T19:02:37.012Z,25.33
2023-04-06T19:05:06.412Z,25.90
2023-04-06T19:07:36.408Z,24.33
2023-04-06T19:10:07.387Z,27.80
2023-04-06T19:12:41.977Z,27.55
2023-04-06T19:15:11.949Z,27.20
2023-04-06T19:17:40.773Z,28.27
2023-04-06T19:20:11.727Z,27.40
2023-04-06T19:22:46.443Z,28.85
2023-04-06T19:25:17.428Z,27.83
2023-04-06T19:27:46.576Z,29.60
2023-04-06T19:30:20.438Z,27.10
2023-04-06T19:32:49.062Z,27.88
2023-04-06T19:35:17.598Z,31.08
2023-04-06T19:37:47.834Z,29.13
2023-04-06T19:40:16.786Z,28.77
2023-04-06T19:42:46.232Z,30.88
2023-04-06T19:45:14.958Z,32.95
2023-04-06T19:47:44.583Z,34.60
2023-04-06T19:50:14.425Z,34.60
2023-04-06T19:52:42.904Z,33.35
2023-04-06T19:55:12.999Z,33.55
2023-04-06T19:57:46.343Z,34.70
2023-04-06T20:00:17.315Z,35.47
2023-04-06T20:02:46.232Z,35.03
2023-04-06T20:05:15.408Z,34.90
2023-04-06T20:07:44.823Z,33.90
2023-04-06T20:10:15.749Z,33.67
2023-04-06T20:12:44.915Z,35.78
2023-04-06T20:15:14.015Z,35.80
2023-04-06T20:17:42.852Z,35.70
2023-04-06T20:20:13.506Z,34.10
2023-04-06T20:22:43.140Z,34.63
2023-04-06T20:25:12.951Z,34.58
2023-04-06T20:27:44.184Z,35.75
2023-04-06T20:30:15.201Z,36.50
2023-04-06T20:32:44.251Z,34.28
2023-04-06T20:35:14.039Z,35.55
2023-04-06T20:37:42.524Z,36.70
2023-04-06T20:40:13.297Z,33.60
2023-04-06T20:42:44.676Z,32.00
2023-04-06T20:45:16.313Z,33.60
2023-04-06T20:47:46.867Z,33.50
2023-04-06T20:50:16.506Z,34.15
2023-04-06T20:52:46.116Z,33.65
2023-04-06T20:55:16.191Z,33.78
2023-04-06T20:57:46.507Z,34.72
2023-04-06T21:00:18.303Z,35.65
2023-04-06T21:02:47.959Z,34.60
2023-04-06T21:05:17.049Z,33.95
2023-04-06T21:07:46.674Z,34.10
2023-04-06T21:10:16.363Z,35.42
2023-04-06T21:12:50.623Z,35.92
2023-04-06T21:15:19.563Z,35.65
2023-04-06T21:17:49.148Z,34.35
2023-04-06T21:20:17.934Z,36.15
2023-04-06T21:22:48.478Z,34.92
2023-04-06T21:25:17.271Z,35.85
2023-04-06T21:27:52.543Z,36.25
2023-04-06T21:30:22.798Z,35.70
2023-04-06T21:32:51.300Z,34.58
2023-04-06T21:35:20.320Z,33.60
2023-04-06T21:37:49.100Z,33.22
2023-04-06T21:40:20.372Z,32.20
2023-04-06T21:42:51.430Z,31.70
2023-04-06T21:45:22.900Z,33.65
2023-04-06T21:47:52.845Z,33.05
2023-04-06T21:50:23.298Z,35.67
2023-04-06T21:52:52.426Z,35.63
2023-04-06T21:55:23.392Z,35.60
2023-04-06T21:57:53.937Z,34.08
2023-04-06T22:00:24.205Z,35.35
2023-04-06T22:02:53.189Z,34.85
2023-04-06T22:05:22.232Z,34.70
2023-04-06T22:07:55.124Z,33.17
2023-04-06T22:10:25.042Z,30.92
2023-04-06T22:13:01.403Z,30.17
2023-04-06T22:15:34.185Z,29.30
2023-04-06T22:18:04.109Z,31.42
2023-04-06T22:20:39.304Z,28.63
2023-04-06T22:23:08.693Z,30.08
2023-04-06T22:25:37.033Z,31.23
2023-04-06T22:28:08.397Z,29.90
2023-04-06T22:30:39.103Z,29.75
2023-04-06T22:33:09.571Z,30.02
2023-04-06T22:35:38.946Z,30.20
2023-04-06T22:38:10.919Z,30.27
2023-04-06T22:40:42.351Z,30.10
2023-04-06T22:43:14.043Z,31.05
2023-04-06T22:45:45.372Z,29.35
2023-04-06T22:48:14.358Z,29.55
2023-04-06T22:50:43.193Z,28.65
2023-04-06T22:53:11.926Z,28.85
2023-04-06T22:55:46.085Z,29.10
2023-04-06T22:58:16.647Z,30.08
2023-04-06T23:00:45.389Z,29.20
2023-04-06T23:03:14.014Z,29.20
2023-04-06T23:05:46.152Z,29.52
2023-04-06T23:08:15.776Z,29.63
2023-04-06T23:10:45.593Z,30.45
2023-04-06T23:13:16.953Z,29.63
2023-04-06T23:15:46.013Z,29.05
2023-04-06T23:18:14.781Z,29.77
2023-04-06T23:20:43.462Z,30.60
2023-04-06T23:23:16.527Z,28.80
2023-04-06T23:25:49.767Z,30.10
2023-04-06T23:28:22.728Z,29.65
2023-04-06T23:30:53.510Z,29.65
2023-04-06T23:33:23.912Z,29.77
2023-04-06T23:35:52.235Z,29.38
2023-04-06T23:38:26.011Z,29.73
2023-04-06T23:40:56.124Z,29.65
2023-04-06T23:43:28.431Z,30.52
2023-04-06T23:45:57.965Z,29.40
2023-04-06T23:48:26.562Z,28.95
2023-04-06T23:50:55.629Z,30.13
2023-04-06T23:53:28.463Z,29.90
2023-04-06T23:55:57.204Z,30.33
2023-04-06T23:58:27.477Z,29.10
